Achilles, Virginia
Current Conditions -  °F | °C
As of 5:54 PM on Friday 19 Dec 2014 (Local Time) from KPHF Reporting Station
Light Rain Light Rain  
Wind Chill: 37°   Ceiling: Unl
Heat Index: 37°   Visibility: 10mi
Dew Point: 27°   Wind: 0mph
Humidity: 67%   Direction: NA
Pressure: 30.18"   Gusts: NA
Location:  37.28°N, 76.44°W
Report Text: KPHF 192254Z AUTO 00000KT 10SM -RA CLR 03/M03 A3018 RMK AO2 RAB35 SLP220 P0000 T00281028 TSNO
Loading
Personal Weather Stations






























Interactive Weather Map New forecast layout! Learn more

10-Day Weather Forecast

Advertisements
Track Severe Weather on mobile